createdAt,value
2018-09-30T00:01:29.381Z,3.80
2018-09-30T00:03:57.769Z,3.53
2018-09-30T00:06:26.113Z,3.50
2018-09-30T00:08:54.419Z,3.03
2018-09-30T00:11:22.685Z,3.27
2018-09-30T00:13:51.025Z,3.43
2018-09-30T00:16:19.361Z,3.67
2018-09-30T00:18:47.700Z,3.53
2018-09-30T00:21:16.039Z,3.60
2018-09-30T00:23:49.637Z,3.23
2018-09-30T00:26:23.067Z,3.33
2018-09-30T00:28:51.330Z,3.30
2018-09-30T00:31:20.203Z,19.93
2018-09-30T00:33:53.946Z,12.20
2018-09-30T00:36:22.246Z,41.00
2018-09-30T00:38:50.509Z,17.17
2018-09-30T00:41:18.828Z,12.43
2018-09-30T00:43:47.089Z,15.27
2018-09-30T00:46:15.349Z,8.67
2018-09-30T00:48:43.777Z,5.57
2018-09-30T00:51:12.066Z,6.10
2018-09-30T00:53:40.398Z,13.80
2018-09-30T00:56:08.702Z,6.90
2018-09-30T00:58:37.004Z,10.70
2018-09-30T01:01:05.310Z,14.83
2018-09-30T01:03:33.602Z,6.10
2018-09-30T01:06:01.890Z,7.60
2018-09-30T01:08:30.157Z,2.90
2018-09-30T01:10:58.499Z,2.80
2018-09-30T01:13:26.790Z,2.70
2018-09-30T01:15:55.042Z,3.10
2018-09-30T01:18:23.334Z,2.97
2018-09-30T01:20:51.599Z,3.37
2018-09-30T01:23:19.866Z,3.20
2018-09-30T01:25:48.393Z,2.70
2018-09-30T01:28:16.650Z,3.00
2018-09-30T01:30:44.907Z,3.27
2018-09-30T01:33:13.278Z,2.90
2018-09-30T01:35:41.562Z,3.30
2018-09-30T01:38:09.838Z,3.00
2018-09-30T01:40:38.157Z,3.20
2018-09-30T01:43:06.409Z,3.10
2018-09-30T01:45:34.689Z,3.07
2018-09-30T01:48:02.969Z,3.10
2018-09-30T01:50:31.264Z,3.10
2018-09-30T01:52:59.579Z,3.30
2018-09-30T01:55:28.241Z,3.17
2018-09-30T01:57:56.612Z,3.40
2018-09-30T02:00:24.854Z,3.00
2018-09-30T02:02:53.154Z,3.00
2018-09-30T02:05:21.406Z,3.00
2018-09-30T02:07:49.709Z,3.10
2018-09-30T02:10:18.515Z,3.30
2018-09-30T02:12:46.882Z,3.10
2018-09-30T02:15:15.178Z,3.30
2018-09-30T02:17:43.590Z,2.77
2018-09-30T02:20:11.861Z,2.80
2018-09-30T02:22:40.455Z,2.50
2018-09-30T02:25:08.778Z,2.93
2018-09-30T02:27:37.062Z,2.83
2018-09-30T02:30:05.808Z,3.13
2018-09-30T02:32:34.123Z,2.97
2018-09-30T02:35:02.475Z,2.90
2018-09-30T02:37:30.745Z,2.53
2018-09-30T02:39:59.147Z,2.60
2018-09-30T02:42:27.464Z,2.80
2018-09-30T02:44:55.743Z,3.23
2018-09-30T02:47:24.032Z,2.70
2018-09-30T02:49:52.304Z,2.60
2018-09-30T02:52:20.588Z,2.77
2018-09-30T02:54:48.890Z,2.70
2018-09-30T02:57:17.355Z,2.67
2018-09-30T02:59:45.626Z,2.47
2018-09-30T03:02:14.043Z,2.97
2018-09-30T03:04:42.310Z,2.80
2018-09-30T03:07:15.806Z,2.30
2018-09-30T03:09:44.323Z,2.70
2018-09-30T03:12:12.638Z,2.40
2018-09-30T03:14:41.027Z,2.70
2018-09-30T03:17:09.326Z,2.93
2018-09-30T03:19:37.596Z,2.73
2018-09-30T03:22:06.138Z,2.47
2018-09-30T03:24:34.394Z,2.40
2018-09-30T03:27:02.678Z,2.70
2018-09-30T03:29:31.122Z,2.60
2018-09-30T03:31:59.446Z,2.90
2018-09-30T03:34:27.738Z,2.63
2018-09-30T03:36:56.039Z,2.90
2018-09-30T03:39:24.419Z,2.60
2018-09-30T03:41:52.740Z,2.63
2018-09-30T03:44:21.038Z,2.97
2018-09-30T03:46:49.302Z,2.50
2018-09-30T03:49:17.591Z,2.90
2018-09-30T03:51:45.921Z,2.97
2018-09-30T03:54:14.210Z,3.30
2018-09-30T03:56:42.576Z,3.30
2018-09-30T03:59:10.875Z,3.13
2018-09-30T04:01:39.146Z,3.53
2018-09-30T04:04:07.427Z,3.40
2018-09-30T04:06:35.754Z,2.80
2018-09-30T04:09:04.591Z,3.40
2018-09-30T04:11:32.852Z,3.50
2018-09-30T04:14:01.175Z,4.03
2018-09-30T04:16:29.445Z,3.80
2018-09-30T04:18:57.703Z,4.10
2018-09-30T04:21:26.034Z,3.90
2018-09-30T04:23:59.586Z,4.30
2018-09-30T04:26:27.881Z,3.43
2018-09-30T04:28:56.150Z,3.07
2018-09-30T04:31:24.402Z,3.23
2018-09-30T04:33:52.690Z,2.83
2018-09-30T04:36:20.970Z,2.80
2018-09-30T04:38:49.242Z,2.40
2018-09-30T04:41:17.597Z,2.80
2018-09-30T04:43:45.938Z,2.30
2018-09-30T04:46:14.202Z,2.53
2018-09-30T04:48:42.626Z,2.70
2018-09-30T04:51:10.902Z,2.23
2018-09-30T04:53:39.166Z,2.47
2018-09-30T04:56:07.477Z,2.43
2018-09-30T04:58:35.946Z,2.40
2018-09-30T05:01:04.210Z,2.70
2018-09-30T05:03:32.490Z,2.47
2018-09-30T05:06:00.826Z,2.90
2018-09-30T05:08:29.128Z,2.90
2018-09-30T05:10:57.454Z,4.13
2018-09-30T05:13:25.738Z,3.40
2018-09-30T05:15:54.060Z,3.37
2018-09-30T05:18:22.306Z,3.17
2018-09-30T05:20:50.589Z,3.80
2018-09-30T05:23:18.863Z,3.73
2018-09-30T05:25:47.303Z,4.10
2018-09-30T05:28:15.547Z,3.90
2018-09-30T05:30:43.820Z,4.33
2018-09-30T05:33:12.124Z,4.47
2018-09-30T05:35:40.402Z,5.00
2018-09-30T05:38:08.762Z,3.73
2018-09-30T05:40:37.062Z,3.60
2018-09-30T05:43:05.326Z,4.00
2018-09-30T05:45:33.598Z,3.90
2018-09-30T05:48:01.907Z,4.07
2018-09-30T05:50:30.199Z,4.03
2018-09-30T05:52:58.457Z,4.83
2018-09-30T05:55:26.757Z,4.57
2018-09-30T05:57:55.083Z,3.80
2018-09-30T06:00:23.426Z,3.77
2018-09-30T06:02:51.742Z,3.63
2018-09-30T06:05:20.022Z,4.10
2018-09-30T06:07:48.361Z,3.57
2018-09-30T06:10:16.781Z,4.07
2018-09-30T06:12:45.779Z,3.60
2018-09-30T06:15:14.115Z,3.77
2018-09-30T06:17:42.627Z,4.47
2018-09-30T06:20:11.077Z,4.40
2018-09-30T06:22:39.347Z,4.23
2018-09-30T06:25:07.945Z,4.37
2018-09-30T06:27:36.308Z,4.10
2018-09-30T06:30:04.688Z,4.00
2018-09-30T06:32:33.002Z,3.93
2018-09-30T06:35:01.353Z,3.70
2018-09-30T06:37:29.611Z,4.17
2018-09-30T06:39:58.020Z,4.00
2018-09-30T06:42:26.371Z,3.93
2018-09-30T06:44:54.788Z,4.97
2018-09-30T06:47:23.134Z,3.90
2018-09-30T06:49:51.523Z,3.63
2018-09-30T06:52:19.801Z,3.60
2018-09-30T06:54:48.163Z,4.40
2018-09-30T06:57:16.551Z,3.60
2018-09-30T06:59:44.933Z,4.20
2018-09-30T07:02:15.673Z,3.60
2018-09-30T07:04:44.235Z,3.57
2018-09-30T07:07:12.725Z,3.80
2018-09-30T07:09:41.129Z,3.47
2018-09-30T07:12:09.494Z,4.40
2018-09-30T07:14:37.926Z,4.57
2018-09-30T07:17:06.314Z,5.13
2018-09-30T07:19:34.619Z,7.57
2018-09-30T07:22:02.968Z,4.00
2018-09-30T07:24:31.318Z,6.00
2018-09-30T07:26:59.758Z,4.10
2018-09-30T07:29:28.125Z,5.53
2018-09-30T07:31:56.550Z,6.53
2018-09-30T07:34:25.402Z,7.00
2018-09-30T07:36:53.881Z,5.37
2018-09-30T07:39:22.294Z,4.13
2018-09-30T07:41:50.721Z,4.50
2018-09-30T07:44:19.006Z,4.43
2018-09-30T07:46:47.589Z,4.80
2018-09-30T07:49:15.830Z,4.77
2018-09-30T07:51:50.982Z,4.17
2018-09-30T07:54:19.401Z,3.97
2018-09-30T07:56:48.775Z,4.10
2018-09-30T07:59:17.217Z,4.03
2018-09-30T08:01:45.535Z,4.43
2018-09-30T08:04:18.612Z,5.40
2018-09-30T08:06:46.961Z,4.40
2018-09-30T08:09:15.253Z,4.27
2018-09-30T08:11:43.702Z,5.10
2018-09-30T08:14:11.998Z,4.70
2018-09-30T08:16:40.291Z,4.80
2018-09-30T08:19:08.674Z,5.13
2018-09-30T08:21:37.859Z,5.20
2018-09-30T08:24:06.257Z,5.53
2018-09-30T08:26:34.499Z,4.83
2018-09-30T08:29:02.888Z,5.07
2018-09-30T08:31:31.327Z,4.93
2018-09-30T08:33:59.951Z,4.90
2018-09-30T08:36:28.450Z,5.17
2018-09-30T08:38:56.865Z,5.07
2018-09-30T08:41:25.250Z,5.10
2018-09-30T08:43:53.977Z,6.03
2018-09-30T08:46:22.320Z,5.70
2018-09-30T08:48:50.805Z,6.50
2018-09-30T08:51:19.660Z,5.10
2018-09-30T08:53:48.470Z,5.50
2018-09-30T08:56:17.531Z,5.83
2018-09-30T08:58:45.821Z,5.30
2018-09-30T09:01:14.204Z,5.70
2018-09-30T09:03:42.641Z,5.57
2018-09-30T09:06:11.791Z,6.40
2018-09-30T09:08:40.299Z,6.23
2018-09-30T09:11:10.721Z,6.80
2018-09-30T09:13:39.301Z,6.43
2018-09-30T09:16:07.641Z,6.03
2018-09-30T09:18:41.353Z,6.30
2018-09-30T09:21:09.729Z,6.33
2018-09-30T09:23:38.946Z,7.43
2018-09-30T09:26:07.735Z,7.47
2018-09-30T09:28:36.226Z,6.90
2018-09-30T09:31:04.533Z,7.50
2018-09-30T09:33:32.865Z,6.93
2018-09-30T09:36:01.149Z,7.07
2018-09-30T09:38:29.555Z,7.47
2018-09-30T09:40:57.976Z,7.87
2018-09-30T09:43:26.483Z,8.00
2018-09-30T09:45:54.775Z,7.93
2018-09-30T09:48:23.458Z,10.23
2018-09-30T09:50:52.229Z,8.40
2018-09-30T09:53:20.627Z,10.80
2018-09-30T09:55:49.090Z,9.87
2018-09-30T09:58:17.461Z,11.23
2018-09-30T10:00:46.173Z,10.70
2018-09-30T10:03:16.037Z,11.33
2018-09-30T10:05:45.103Z,10.73
2018-09-30T10:08:13.844Z,12.50
2018-09-30T10:10:42.298Z,19.53
2018-09-30T10:13:10.795Z,12.93
2018-09-30T10:15:39.205Z,11.33
2018-09-30T10:18:07.582Z,11.63
2018-09-30T10:20:35.879Z,11.13
2018-09-30T10:23:04.792Z,32.00
2018-09-30T10:25:33.213Z,12.83
2018-09-30T10:28:03.551Z,11.73
2018-09-30T10:30:32.035Z,22.23
2018-09-30T10:33:00.519Z,12.10
2018-09-30T10:35:28.953Z,16.20
2018-09-30T10:37:57.423Z,12.20
2018-09-30T10:40:25.823Z,15.17
2018-09-30T10:42:54.227Z,15.77
2018-09-30T10:45:22.667Z,26.67
2018-09-30T10:47:51.022Z,17.03
2018-09-30T10:50:19.355Z,13.70
2018-09-30T10:52:47.647Z,13.70
2018-09-30T10:55:15.987Z,19.20
2018-09-30T10:57:44.702Z,13.47
2018-09-30T11:00:13.005Z,11.93
2018-09-30T11:02:41.345Z,10.87
2018-09-30T11:05:09.753Z,11.50
2018-09-30T11:07:38.117Z,11.10
2018-09-30T11:10:07.111Z,11.93
2018-09-30T11:12:35.343Z,10.40
2018-09-30T11:15:03.851Z,9.87
2018-09-30T11:17:32.255Z,11.47
2018-09-30T11:20:01.137Z,10.43
2018-09-30T11:22:29.528Z,9.67
2018-09-30T11:24:58.527Z,10.60
2018-09-30T11:27:27.046Z,18.83
2018-09-30T11:29:56.167Z,9.43
2018-09-30T11:32:24.675Z,9.57
2018-09-30T11:34:54.243Z,9.73
2018-09-30T11:37:22.527Z,8.67
2018-09-30T11:39:50.839Z,9.13
2018-09-30T11:42:19.275Z,8.70
2018-09-30T11:44:48.244Z,8.30
2018-09-30T11:47:16.574Z,17.83
2018-09-30T11:49:45.585Z,8.60
2018-09-30T11:52:14.949Z,10.07
2018-09-30T11:54:43.627Z,7.60
2018-09-30T11:57:13.397Z,8.17
2018-09-30T11:59:42.470Z,8.20
2018-09-30T12:02:11.077Z,9.23
2018-09-30T12:04:39.509Z,15.83
2018-09-30T12:07:07.809Z,10.43
2018-09-30T12:09:38.299Z,10.97
2018-09-30T12:12:06.714Z,10.37
2018-09-30T12:14:35.071Z,9.97
2018-09-30T12:17:03.674Z,8.90
2018-09-30T12:19:32.078Z,20.60
2018-09-30T12:22:00.416Z,9.63
2018-09-30T12:24:28.968Z,13.53
2018-09-30T12:26:57.455Z,9.50
2018-09-30T12:29:25.856Z,8.13
2018-09-30T12:31:54.345Z,9.43
2018-09-30T12:34:22.725Z,10.20
2018-09-30T12:36:51.094Z,11.27
2018-09-30T12:39:19.481Z,10.60
2018-09-30T12:41:47.721Z,9.13
2018-09-30T12:44:16.019Z,10.37
2018-09-30T12:46:44.539Z,9.97
2018-09-30T12:49:12.877Z,14.40
2018-09-30T12:51:41.341Z,11.47
2018-09-30T12:54:09.959Z,12.90
2018-09-30T12:56:38.250Z,9.50
2018-09-30T12:59:06.559Z,9.50
2018-09-30T13:01:34.913Z,7.97
2018-09-30T13:04:03.633Z,9.60
2018-09-30T13:06:31.945Z,10.23
2018-09-30T13:09:00.358Z,8.43
2018-09-30T13:11:28.738Z,8.60
2018-09-30T13:13:57.085Z,14.47
2018-09-30T13:16:25.493Z,16.43
2018-09-30T13:18:53.817Z,14.47
2018-09-30T13:21:22.210Z,8.23
2018-09-30T13:23:50.619Z,8.60
2018-09-30T13:26:19.042Z,9.43
2018-09-30T13:28:47.375Z,8.70
2018-09-30T13:31:16.042Z,8.87
2018-09-30T13:33:44.442Z,8.70
2018-09-30T13:36:12.863Z,10.70
2018-09-30T13:38:41.246Z,12.10
2018-09-30T13:41:10.613Z,8.97
2018-09-30T13:43:38.745Z,10.00
2018-09-30T13:46:07.212Z,9.53
2018-09-30T13:48:35.518Z,8.20
2018-09-30T13:51:03.912Z,7.97
2018-09-30T13:53:32.462Z,33.57
2018-09-30T13:56:00.958Z,8.37
2018-09-30T13:58:29.431Z,7.37
2018-09-30T14:00:58.217Z,8.20
2018-09-30T14:03:26.601Z,8.07
2018-09-30T14:05:54.926Z,8.03
2018-09-30T14:08:23.303Z,9.17
2018-09-30T14:10:51.626Z,12.17
2018-09-30T14:13:19.997Z,9.00
2018-09-30T14:15:48.486Z,7.63
2018-09-30T14:18:16.866Z,11.40
2018-09-30T14:20:45.190Z,9.87
2018-09-30T14:23:13.687Z,8.63
2018-09-30T14:25:42.090Z,7.07
2018-09-30T14:28:10.498Z,7.20
2018-09-30T14:30:38.891Z,7.63
2018-09-30T14:33:07.446Z,7.47
2018-09-30T14:35:35.814Z,6.90
2018-09-30T14:38:04.280Z,7.53
2018-09-30T14:40:32.674Z,9.03
2018-09-30T14:43:01.057Z,7.53
2018-09-30T14:45:29.514Z,7.67
2018-09-30T14:47:58.129Z,6.90
2018-09-30T14:50:26.570Z,6.73
2018-09-30T14:52:54.886Z,7.63
2018-09-30T14:55:23.264Z,7.77
2018-09-30T14:57:51.627Z,25.17
2018-09-30T15:00:20.051Z,9.67
2018-09-30T15:02:48.467Z,7.87
2018-09-30T15:05:16.754Z,7.33
2018-09-30T15:07:45.182Z,7.60
2018-09-30T15:10:14.079Z,11.00
2018-09-30T15:12:42.426Z,14.83
2018-09-30T15:15:10.838Z,12.70
2018-09-30T15:17:45.935Z,8.30
2018-09-30T15:20:14.718Z,7.93
2018-09-30T15:22:43.087Z,20.03
2018-09-30T15:25:11.494Z,33.30
2018-09-30T15:27:39.971Z,14.53
2018-09-30T15:30:08.387Z,9.30
2018-09-30T15:32:36.663Z,7.93
2018-09-30T15:35:05.155Z,8.63
2018-09-30T15:37:33.683Z,7.57
2018-09-30T15:40:03.071Z,22.93
2018-09-30T15:42:31.518Z,10.77
2018-09-30T15:44:59.859Z,25.03
2018-09-30T15:47:28.199Z,10.03
2018-09-30T15:49:56.625Z,10.87
2018-09-30T15:52:25.069Z,14.30
2018-09-30T15:54:53.882Z,12.47
2018-09-30T15:57:22.580Z,9.73
2018-09-30T15:59:51.000Z,10.17
2018-09-30T16:02:19.521Z,11.93
2018-09-30T16:04:47.875Z,9.27
2018-09-30T16:07:16.161Z,9.40
2018-09-30T16:09:44.461Z,31.83
2018-09-30T16:12:15.781Z,15.83
2018-09-30T16:14:44.068Z,12.40
2018-09-30T16:17:12.468Z,8.97
2018-09-30T16:19:40.841Z,9.17
2018-09-30T16:22:09.263Z,9.43
2018-09-30T16:24:37.646Z,9.30
2018-09-30T16:27:06.246Z,12.87
2018-09-30T16:29:34.543Z,9.63
2018-09-30T16:32:03.002Z,10.30
2018-09-30T16:34:31.323Z,10.43
2018-09-30T16:36:59.726Z,9.60
2018-09-30T16:39:28.149Z,8.83
2018-09-30T16:41:56.915Z,10.00
2018-09-30T16:44:25.275Z,8.90
2018-09-30T16:46:53.548Z,9.23
2018-09-30T16:49:21.875Z,8.33
2018-09-30T16:51:50.466Z,9.13
2018-09-30T16:54:19.279Z,10.00
2018-09-30T16:56:47.702Z,9.80
2018-09-30T16:59:15.949Z,11.53
2018-09-30T17:01:44.281Z,10.70
2018-09-30T17:04:12.786Z,12.03
2018-09-30T17:06:41.148Z,12.20
2018-09-30T17:09:09.423Z,12.63
2018-09-30T17:11:37.997Z,11.80
2018-09-30T17:14:06.383Z,12.73
2018-09-30T17:16:34.862Z,10.70
2018-09-30T17:19:03.550Z,11.30
2018-09-30T17:21:31.939Z,12.83
2018-09-30T17:24:00.213Z,12.30
2018-09-30T17:26:28.723Z,12.13
2018-09-30T17:28:57.051Z,13.27
2018-09-30T17:31:25.467Z,12.83
2018-09-30T17:33:54.017Z,15.80
2018-09-30T17:36:22.578Z,12.80
2018-09-30T17:38:50.878Z,13.03
2018-09-30T17:41:19.295Z,14.40
2018-09-30T17:43:47.659Z,14.67
2018-09-30T17:46:16.012Z,15.13
2018-09-30T17:48:44.505Z,13.03
2018-09-30T17:51:12.887Z,14.10
2018-09-30T17:53:41.257Z,14.03
2018-09-30T17:56:09.619Z,14.80
2018-09-30T17:58:38.011Z,14.60
2018-09-30T18:01:06.597Z,12.50
2018-09-30T18:03:35.102Z,13.17
2018-09-30T18:06:03.462Z,14.70
2018-09-30T18:08:31.847Z,15.03
2018-09-30T18:11:00.360Z,14.57
2018-09-30T18:13:28.629Z,14.43
2018-09-30T18:15:56.943Z,14.43
2018-09-30T18:18:25.382Z,14.70
2018-09-30T18:20:53.753Z,13.43
2018-09-30T18:23:22.109Z,13.50
2018-09-30T18:25:50.497Z,14.17
2018-09-30T18:28:18.843Z,15.03
2018-09-30T18:30:47.237Z,16.07
2018-09-30T18:33:15.717Z,15.93
2018-09-30T18:35:44.089Z,16.20
2018-09-30T18:38:12.465Z,14.40
2018-09-30T18:40:43.705Z,13.20
2018-09-30T18:43:12.474Z,12.63
2018-09-30T18:45:41.036Z,14.20
2018-09-30T18:48:09.970Z,13.70
2018-09-30T18:50:38.491Z,11.93
2018-09-30T18:53:07.255Z,11.77
2018-09-30T18:55:41.994Z,11.50
2018-09-30T18:58:10.367Z,10.80
2018-09-30T19:00:38.713Z,10.90
2018-09-30T19:03:07.079Z,10.80
2018-09-30T19:05:35.432Z,9.47
2018-09-30T19:08:03.763Z,9.87
2018-09-30T19:10:32.183Z,9.73
2018-09-30T19:13:00.521Z,9.80
2018-09-30T19:15:28.905Z,10.03
2018-09-30T19:17:57.257Z,9.30
2018-09-30T19:20:25.687Z,11.80
2018-09-30T19:22:53.986Z,15.87
2018-09-30T19:25:22.315Z,16.53
2018-09-30T19:27:50.627Z,14.37
2018-09-30T19:30:18.947Z,12.87
2018-09-30T19:32:47.420Z,12.90
2018-09-30T19:35:15.855Z,11.97
2018-09-30T19:37:44.187Z,10.73
2018-09-30T19:40:12.665Z,12.10
2018-09-30T19:42:41.059Z,9.40
2018-09-30T19:45:09.380Z,10.53
2018-09-30T19:47:37.703Z,9.23
2018-09-30T19:50:06.056Z,11.93
2018-09-30T19:52:34.471Z,13.40
2018-09-30T19:55:02.946Z,13.93
2018-09-30T19:57:31.287Z,12.13
2018-09-30T19:59:59.794Z,10.90
2018-09-30T20:02:28.226Z,11.57
2018-09-30T20:04:56.550Z,11.60
2018-09-30T20:07:24.950Z,11.27
2018-09-30T20:09:53.784Z,12.30
2018-09-30T20:12:22.213Z,11.30
2018-09-30T20:14:51.108Z,10.50
2018-09-30T20:17:19.584Z,9.00
2018-09-30T20:19:47.975Z,7.97
2018-09-30T20:22:16.346Z,9.00
2018-09-30T20:24:44.723Z,9.10
2018-09-30T20:27:12.966Z,10.00
2018-09-30T20:29:41.298Z,8.30
2018-09-30T20:32:09.850Z,9.77
2018-09-30T20:34:38.163Z,9.47
2018-09-30T20:37:06.574Z,8.80
2018-09-30T20:39:34.941Z,9.07
2018-09-30T20:42:03.222Z,8.87
2018-09-30T20:44:31.541Z,9.47
2018-09-30T20:47:00.686Z,8.97
2018-09-30T20:49:29.101Z,8.80
2018-09-30T20:51:57.504Z,9.20
2018-09-30T20:54:25.826Z,9.30
2018-09-30T20:56:54.880Z,9.87
2018-09-30T20:59:23.461Z,8.67
2018-09-30T21:01:51.856Z,13.30
2018-09-30T21:04:20.134Z,9.73
2018-09-30T21:06:48.405Z,10.33
2018-09-30T21:09:18.203Z,9.30
2018-09-30T21:11:46.580Z,11.73
2018-09-30T21:14:14.958Z,10.63
2018-09-30T21:16:43.466Z,13.27
2018-09-30T21:19:11.907Z,13.20
2018-09-30T21:21:40.381Z,12.67
2018-09-30T21:24:09.494Z,12.17
2018-09-30T21:26:37.811Z,11.87
2018-09-30T21:29:06.130Z,11.07
2018-09-30T21:31:34.561Z,10.47
2018-09-30T21:34:02.900Z,10.40
2018-09-30T21:36:31.186Z,9.90
2018-09-30T21:38:59.730Z,9.83
2018-09-30T21:41:28.138Z,9.83
2018-09-30T21:43:56.617Z,9.67
2018-09-30T21:46:25.018Z,8.80
2018-09-30T21:48:53.450Z,9.87
2018-09-30T21:51:21.632Z,10.47
2018-09-30T21:53:50.062Z,10.17
2018-09-30T21:56:18.421Z,9.87
2018-09-30T21:58:46.882Z,9.80
2018-09-30T22:01:15.677Z,10.00
2018-09-30T22:03:43.937Z,9.80
2018-09-30T22:06:12.223Z,10.97
2018-09-30T22:08:40.537Z,11.57
2018-09-30T22:11:08.855Z,12.20
2018-09-30T22:13:37.171Z,12.03
2018-09-30T22:16:05.587Z,11.27
2018-09-30T22:18:33.912Z,10.50
2018-09-30T22:21:02.302Z,10.80
2018-09-30T22:23:30.634Z,11.40
2018-09-30T22:25:58.928Z,10.33
2018-09-30T22:28:27.238Z,12.03
2018-09-30T22:30:55.555Z,13.97
2018-09-30T22:33:23.875Z,13.17
2018-09-30T22:35:52.188Z,12.30
2018-09-30T22:38:20.506Z,12.97
2018-09-30T22:40:48.934Z,9.87
2018-09-30T22:43:17.289Z,9.20
2018-09-30T22:45:45.782Z,8.13
2018-09-30T22:48:14.143Z,7.93
2018-09-30T22:50:42.550Z,7.67
2018-09-30T22:53:11.031Z,7.17
2018-09-30T22:55:39.462Z,6.80
2018-09-30T22:58:07.726Z,6.73
2018-09-30T23:00:36.042Z,6.80
2018-09-30T23:03:04.513Z,6.57
2018-09-30T23:05:32.788Z,6.93
2018-09-30T23:08:01.200Z,6.50
2018-09-30T23:10:29.550Z,6.90
2018-09-30T23:12:58.040Z,6.50
2018-09-30T23:15:26.542Z,6.60
2018-09-30T23:17:54.990Z,6.40
2018-09-30T23:20:23.261Z,6.50
2018-09-30T23:22:51.562Z,7.27
2018-09-30T23:25:19.927Z,6.67
2018-09-30T23:27:48.273Z,5.93
2018-09-30T23:30:16.590Z,6.40
2018-09-30T23:32:44.926Z,6.80
2018-09-30T23:35:13.226Z,7.07
2018-09-30T23:37:41.578Z,6.53
2018-09-30T23:40:09.905Z,6.33
2018-09-30T23:42:38.463Z,6.70
2018-09-30T23:45:06.960Z,7.00
2018-09-30T23:47:35.295Z,6.77
2018-09-30T23:50:03.657Z,6.27
2018-09-30T23:52:31.978Z,6.30
2018-09-30T23:55:00.353Z,6.33
2018-09-30T23:57:28.623Z,6.97
2018-09-30T23:59:57.335Z,6.67
